PWSweather.com
Personal Weather Stations
Station Observations
RTINEZ
TerrassaES 08226

TerrassaES 08226

Lat: 41.5762194, Lon: 2.028993700000001

Elevation: 367

Station Type: Watson W8681

www.rtinez.cat

High Low Average
Temperature 84.2°F29.0°C 70.7°F21.5°C 76.7°F24.8°C
Dew Point 57.6°F14.2°C 42.4°F5.8°C 48.2°F9.0°C
Winds 6.9 mph 11.1 kmh Calm Calm 4.0 mph ESE6.4 kmh ESE
Wind Gusts 132.0 mph212.4 kmh 2.2 mph3.5 kmh 21.0 mph33.8 kmh
Humidity 47% 28% 37%
Pressure 30.13 in1020.3 mb 29.95 in1014.2 mb -
Precipitation 0.00 in0.0 mm - -
Hour Temp Dew Point Humidity Winds Wind Gusts Pressure Precip Precip Rate Daily Precip Total
12:00 AM 71.2°F21.8°C 45.0°F7.2°C 39% 3.8 mph N6.1 kmh N 6.9 mph11.1 kmh 30.13 in1020.3 mb 0.00 in0.0 mm 0.00 in0.0 mm 0.00 in0.0 mm
12:15 AM 70.9°F21.6°C 44.7°F7.1°C 39% 4.5 mph N7.2 kmh N 7.6 mph12.2 kmh 30.13 in1020.3 mb 0.00 in0.0 mm 0.00 in0.0 mm 0.00 in0.0 mm
12:30 AM 70.9°F21.6°C 44.7°F7.1°C 39% 3.8 mph N6.1 kmh N 7.6 mph12.2 kmh 30.13 in1020.3 mb 0.00 in0.0 mm 0.00 in0.0 mm 0.00 in0.0 mm
12:45 AM 70.9°F21.6°C 44.7°F7.1°C 39% 6.0 mph NNE9.7 kmh NNE 7.6 mph12.2 kmh 30.13 in1020.3 mb 0.00 in0.0 mm 0.00 in0.0 mm 0.00 in0.0 mm
01:00 AM 70.9°F21.6°C 46.0°F7.8°C 41% 3.1 mph NNE5.0 kmh NNE 6.9 mph11.1 kmh 30.12 in1020.0 mb 0.00 in0.0 mm 0.00 in0.0 mm 0.00 in0.0 mm
01:15 AM 70.9°F21.6°C 46.0°F7.8°C 41% 3.1 mph NNE5.0 kmh NNE 5.4 mph8.7 kmh 30.13 in1020.3 mb 0.00 in0.0 mm 0.00 in0.0 mm 0.00 in0.0 mm
01:30 AM 70.9°F21.6°C 45.4°F7.4°C 40% 5.4 mph N8.7 kmh N 6.9 mph11.1 kmh 30.12 in1020.0 mb 0.00 in0.0 mm 0.00 in0.0 mm 0.00 in0.0 mm
01:45 AM 71.4°F21.9°C 45.9°F7.7°C 40% 3.8 mph N6.1 kmh N 6.0 mph9.7 kmh 30.12 in1020.0 mb 0.00 in0.0 mm 0.00 in0.0 mm 0.00 in0.0 mm
02:00 AM 71.8°F22.1°C 45.5°F7.5°C 39% 5.4 mph NE8.7 kmh NE 7.6 mph12.2 kmh 30.12 in1020.0 mb 0.00 in0.0 mm 0.00 in0.0 mm 0.00 in0.0 mm
02:15 AM 71.4°F21.9°C 46.5°F8.1°C 41% 4.5 mph NE7.2 kmh NE 6.9 mph11.1 kmh 30.10 in1019.3 mb 0.00 in0.0 mm 0.00 in0.0 mm 0.00 in0.0 mm
02:30 AM 70.7°F21.5°C 45.9°F7.7°C 41% 3.1 mph N5.0 kmh N 5.4 mph8.7 kmh 30.11 in1019.6 mb 0.00 in0.0 mm 0.00 in0.0 mm 0.00 in0.0 mm
02:45 AM 70.9°F21.6°C 45.4°F7.4°C 40% 3.8 mph N6.1 kmh N 5.4 mph8.7 kmh 30.11 in1019.6 mb 0.00 in0.0 mm 0.00 in0.0 mm 0.00 in0.0 mm
03:00 AM 71.6°F22.0°C 44.7°F7.1°C 38% 3.1 mph NE5.0 kmh NE 5.4 mph8.7 kmh 30.10 in1019.3 mb 0.00 in0.0 mm 0.00 in0.0 mm 0.00 in0.0 mm
03:15 AM 71.4°F21.9°C 45.9°F7.7°C 40% 3.8 mph NE6.1 kmh NE 5.4 mph8.7 kmh 30.09 in1019.0 mb 0.00 in0.0 mm 0.00 in0.0 mm 0.00 in0.0 mm
03:30 AM 71.2°F21.8°C 46.4°F8.0°C 41% 3.1 mph NE5.0 kmh NE 6.9 mph11.1 kmh 30.09 in1019.0 mb 0.00 in0.0 mm 0.00 in0.0 mm 0.00 in0.0 mm
03:45 AM 70.7°F21.5°C 45.9°F7.7°C 41% 5.4 mph NNE8.7 kmh NNE 7.6 mph12.2 kmh 30.09 in1019.0 mb 0.00 in0.0 mm 0.00 in0.0 mm 0.00 in0.0 mm
04:00 AM 71.1°F21.7°C 47.5°F8.6°C 43% 4.5 mph NE7.2 kmh NE 7.6 mph12.2 kmh 30.08 in1018.6 mb 0.00 in0.0 mm 0.00 in0.0 mm 0.00 in0.0 mm
04:15 AM 72.5°F22.5°C 46.8°F8.2°C 40% 4.5 mph ENE7.2 kmh ENE 7.6 mph12.2 kmh 30.07 in1018.3 mb 0.00 in0.0 mm 0.00 in0.0 mm 0.00 in0.0 mm
04:30 AM 72.1°F22.3°C 46.5°F8.1°C 40% 4.5 mph NE7.2 kmh NE 6.9 mph11.1 kmh 30.08 in1018.6 mb 0.00 in0.0 mm 0.00 in0.0 mm 0.00 in0.0 mm
04:45 AM 72.3°F22.4°C 47.3°F8.5°C 41% 4.5 mph NE7.2 kmh NE 9.2 mph14.8 kmh 30.07 in1018.3 mb 0.00 in0.0 mm 0.00 in0.0 mm 0.00 in0.0 mm
05:00 AM 72.7°F22.6°C 47.7°F8.7°C 41% 3.8 mph NE6.1 kmh NE 7.6 mph12.2 kmh 30.07 in1018.3 mb 0.00 in0.0 mm 0.00 in0.0 mm 0.00 in0.0 mm
05:15 AM 73.4°F23.0°C 47.6°F8.7°C 40% 3.8 mph NE6.1 kmh NE 9.2 mph14.8 kmh 30.07 in1018.3 mb 0.00 in0.0 mm 0.00 in0.0 mm 0.00 in0.0 mm
05:30 AM 73.6°F23.1°C 46.4°F8.0°C 38% 4.5 mph NE7.2 kmh NE 10.7 mph17.2 kmh 30.07 in1018.3 mb 0.00 in0.0 mm 0.00 in0.0 mm 0.00 in0.0 mm
05:45 AM 73.6°F23.1°C 46.4°F8.0°C 38% 3.1 mph NNE5.0 kmh NNE 8.3 mph13.4 kmh 30.07 in1018.3 mb 0.00 in0.0 mm 0.00 in0.0 mm 0.00 in0.0 mm
06:00 AM 73.2°F22.9°C 46.8°F8.2°C 39% 3.8 mph NE6.1 kmh NE 6.0 mph9.7 kmh 30.07 in1018.3 mb 0.00 in0.0 mm 0.00 in0.0 mm 0.00 in0.0 mm
06:15 AM 73.4°F23.0°C 46.3°F7.9°C 38% 3.8 mph NE6.1 kmh NE 6.9 mph11.1 kmh 30.07 in1018.3 mb 0.00 in0.0 mm 0.00 in0.0 mm 0.00 in0.0 mm
06:30 AM 73.0°F22.8°C 46.6°F8.1°C 39% 1.6 mph ENE2.6 kmh ENE 6.0 mph9.7 kmh 30.07 in1018.3 mb 0.00 in0.0 mm 0.00 in0.0 mm 0.00 in0.0 mm
06:45 AM 72.7°F22.6°C 46.3°F7.9°C 39% 0.7 mph NE1.1 kmh NE 3.8 mph6.1 kmh 30.08 in1018.6 mb 0.00 in0.0 mm 0.00 in0.0 mm 0.00 in0.0 mm
07:00 AM 73.0°F22.8°C 46.6°F8.1°C 39% 3.1 mph ENE5.0 kmh ENE 6.0 mph9.7 kmh 30.08 in1018.6 mb 0.00 in0.0 mm 0.00 in0.0 mm 0.00 in0.0 mm
07:15 AM 74.1°F23.4°C 46.9°F8.3°C 38% 2.2 mph NE3.5 kmh NE 6.0 mph9.7 kmh 30.08 in1018.6 mb 0.00 in0.0 mm 0.00 in0.0 mm 0.00 in0.0 mm
07:30 AM 75.0°F23.9°C 47.0°F8.3°C 37% 3.8 mph ENE6.1 kmh ENE 6.9 mph11.1 kmh 30.08 in1018.6 mb 0.00 in0.0 mm 0.00 in0.0 mm 0.00 in0.0 mm
07:45 AM 75.7°F24.3°C 46.9°F8.3°C 36% 2.2 mph E3.5 kmh E 6.0 mph9.7 kmh 30.09 in1019.0 mb 0.00 in0.0 mm 0.00 in0.0 mm 0.00 in0.0 mm
08:00 AM 77.2°F25.1°C 47.4°F8.6°C 35% 2.2 mph E3.5 kmh E 6.9 mph11.1 kmh 30.09 in1019.0 mb 0.00 in0.0 mm 0.00 in0.0 mm 0.00 in0.0 mm
08:15 AM 79.2°F26.2°C 47.6°F8.7°C 33% 1.6 mph E2.6 kmh E 4.5 mph7.2 kmh 30.09 in1019.0 mb 0.00 in0.0 mm 0.00 in0.0 mm 0.00 in0.0 mm
08:30 AM 79.5°F26.4°C 47.1°F8.4°C 32% 2.2 mph SE3.5 kmh SE 7.6 mph12.2 kmh 30.09 in1019.0 mb 0.00 in0.0 mm 0.00 in0.0 mm 0.00 in0.0 mm
08:45 AM 78.6°F25.9°C 47.1°F8.4°C 33% 3.8 mph ENE6.1 kmh ENE 122.0 mph196.3 kmh 30.09 in1019.0 mb 0.00 in0.0 mm 0.00 in0.0 mm 0.00 in0.0 mm
09:00 AM 80.4°F26.9°C 47.1°F8.4°C 31% 4.5 mph E7.2 kmh E 7.6 mph12.2 kmh 30.09 in1019.0 mb 0.00 in0.0 mm 0.00 in0.0 mm 0.00 in0.0 mm
09:15 AM 81.0°F27.2°C 45.8°F7.7°C 29% 3.8 mph ESE6.1 kmh ESE 7.6 mph12.2 kmh 30.11 in1019.6 mb 0.00 in0.0 mm 0.00 in0.0 mm 0.00 in0.0 mm
09:30 AM 79.5°F26.4°C 44.5°F6.9°C 29% 5.4 mph ESE8.7 kmh ESE 9.2 mph14.8 kmh 30.10 in1019.3 mb 0.00 in0.0 mm 0.00 in0.0 mm 0.00 in0.0 mm
09:45 AM 79.5°F26.4°C 45.4°F7.4°C 30% 5.4 mph SE8.7 kmh SE 9.8 mph15.8 kmh 30.10 in1019.3 mb 0.00 in0.0 mm 0.00 in0.0 mm 0.00 in0.0 mm
10:00 AM 81.3°F27.4°C 45.1°F7.3°C 28% 4.5 mph SE7.2 kmh SE 9.2 mph14.8 kmh 30.10 in1019.3 mb 0.00 in0.0 mm 0.00 in0.0 mm 0.00 in0.0 mm
10:15 AM 81.3°F27.4°C 45.1°F7.3°C 28% 4.5 mph SE7.2 kmh SE 9.8 mph15.8 kmh 30.11 in1019.6 mb 0.00 in0.0 mm 0.00 in0.0 mm 0.00 in0.0 mm
10:30 AM 80.8°F27.1°C 45.6°F7.6°C 29% 4.5 mph SE7.2 kmh SE 10.7 mph17.2 kmh 30.11 in1019.6 mb 0.00 in0.0 mm 0.00 in0.0 mm 0.00 in0.0 mm
10:45 AM 81.9°F27.7°C 47.4°F8.6°C 30% 3.8 mph ESE6.1 kmh ESE 8.3 mph13.4 kmh 30.11 in1019.6 mb 0.00 in0.0 mm 0.00 in0.0 mm 0.00 in0.0 mm
11:00 AM 81.9°F27.7°C 47.4°F8.6°C 30% 3.1 mph ESE5.0 kmh ESE 8.3 mph13.4 kmh 30.11 in1019.6 mb 0.00 in0.0 mm 0.00 in0.0 mm 0.00 in0.0 mm
11:15 AM 81.9°F27.7°C 48.3°F9.1°C 31% 3.1 mph SE5.0 kmh SE 9.2 mph14.8 kmh 30.11 in1019.6 mb 0.00 in0.0 mm 0.00 in0.0 mm 0.00 in0.0 mm
11:30 AM 82.6°F28.1°C 49.8°F9.9°C 32% 2.2 mph SE3.5 kmh SE 9.2 mph14.8 kmh 29.95 in1014.2 mb 0.00 in0.0 mm 0.00 in0.0 mm 0.00 in0.0 mm
11:45 AM 81.9°F27.7°C 48.3°F9.1°C 31% 3.8 mph SE6.1 kmh SE 8.3 mph13.4 kmh 30.11 in1019.6 mb 0.00 in0.0 mm 0.00 in0.0 mm 0.00 in0.0 mm
12:00 PM 83.1°F28.4°C 50.3°F10.2°C 32% 5.4 mph SSE8.7 kmh SSE 7.6 mph12.2 kmh 30.11 in1019.6 mb 0.00 in0.0 mm 0.00 in0.0 mm 0.00 in0.0 mm
12:15 PM 82.2°F27.9°C 49.5°F9.7°C 32% 6.9 mph ESE11.1 kmh ESE 10.7 mph17.2 kmh 30.11 in1019.6 mb 0.00 in0.0 mm 0.00 in0.0 mm 0.00 in0.0 mm
12:30 PM 81.1°F27.3°C 50.9°F10.5°C 35% 6.0 mph S9.7 kmh S 9.8 mph15.8 kmh 30.10 in1019.3 mb 0.00 in0.0 mm 0.00 in0.0 mm 0.00 in0.0 mm
12:45 PM 80.8°F27.1°C 52.8°F11.6°C 38% 2.2 mph SE3.5 kmh SE 9.2 mph14.8 kmh 30.10 in1019.3 mb 0.00 in0.0 mm 0.00 in0.0 mm 0.00 in0.0 mm
01:00 PM 81.3°F27.4°C 53.3°F11.8°C 38% 6.0 mph SE9.7 kmh SE 9.2 mph14.8 kmh 30.09 in1019.0 mb 0.00 in0.0 mm 0.00 in0.0 mm 0.00 in0.0 mm
01:15 PM 81.3°F27.4°C 53.3°F11.8°C 38% 4.5 mph S7.2 kmh S 9.2 mph14.8 kmh 30.09 in1019.0 mb 0.00 in0.0 mm 0.00 in0.0 mm 0.00 in0.0 mm
01:30 PM 82.6°F28.1°C 53.7°F12.1°C 37% 6.0 mph SE9.7 kmh SE 7.6 mph12.2 kmh 30.09 in1019.0 mb 0.00 in0.0 mm 0.00 in0.0 mm 0.00 in0.0 mm
01:45 PM 80.6°F27.0°C 56.1°F13.4°C 43% 3.8 mph SE6.1 kmh SE 10.7 mph17.2 kmh 30.08 in1018.6 mb 0.00 in0.0 mm 0.00 in0.0 mm 0.00 in0.0 mm
02:00 PM 79.5°F26.4°C 57.6°F14.2°C 47% 5.4 mph SE8.7 kmh SE 11.4 mph18.3 kmh 30.08 in1018.6 mb 0.00 in0.0 mm 0.00 in0.0 mm 0.00 in0.0 mm
02:15 PM 81.3°F27.4°C 56.1°F13.4°C 42% 3.8 mph SE6.1 kmh SE 9.8 mph15.8 kmh 30.08 in1018.6 mb 0.00 in0.0 mm 0.00 in0.0 mm 0.00 in0.0 mm
02:30 PM 81.9°F27.7°C 54.5°F12.5°C 39% 4.5 mph SE7.2 kmh SE 9.2 mph14.8 kmh 30.07 in1018.3 mb 0.00 in0.0 mm 0.00 in0.0 mm 0.00 in0.0 mm
02:45 PM 83.3°F28.5°C 54.4°F12.4°C 37% 3.8 mph SE6.1 kmh SE 7.6 mph12.2 kmh 30.07 in1018.3 mb 0.00 in0.0 mm 0.00 in0.0 mm 0.00 in0.0 mm
03:00 PM 82.8°F28.2°C 53.1°F11.7°C 36% 6.0 mph S9.7 kmh S 8.3 mph13.4 kmh 30.06 in1017.9 mb 0.00 in0.0 mm 0.00 in0.0 mm 0.00 in0.0 mm
03:15 PM 81.7°F27.6°C 53.6°F12.0°C 38% 6.0 mph SE9.7 kmh SE 9.8 mph15.8 kmh 30.05 in1017.6 mb 0.00 in0.0 mm 0.00 in0.0 mm 0.00 in0.0 mm
03:30 PM 82.6°F28.1°C 53.0°F11.7°C 36% 4.5 mph ENE7.2 kmh ENE 115.0 mph185.1 kmh 30.07 in1018.3 mb 0.00 in0.0 mm 0.00 in0.0 mm 0.00 in0.0 mm
03:45 PM 83.5°F28.6°C 52.2°F11.2°C 34% 2.2 mph NE3.5 kmh NE 115.0 mph185.1 kmh 30.06 in1017.9 mb 0.00 in0.0 mm 0.00 in0.0 mm 0.00 in0.0 mm
04:00 PM 83.5°F28.6°C 51.4°F10.8°C 33% 1.6 mph NNE2.6 kmh NNE 118.0 mph189.9 kmh 29.95 in1014.2 mb 0.00 in0.0 mm 0.00 in0.0 mm 0.00 in0.0 mm
04:15 PM 84.2°F29.0°C 50.3°F10.2°C 31% 3.8 mph E6.1 kmh E 118.0 mph189.9 kmh 30.05 in1017.6 mb 0.00 in0.0 mm 0.00 in0.0 mm 0.00 in0.0 mm
04:30 PM 83.5°F28.6°C 50.6°F10.3°C 32% 3.8 mph SSE6.1 kmh SSE 118.0 mph189.9 kmh 30.04 in1017.3 mb 0.00 in0.0 mm 0.00 in0.0 mm 0.00 in0.0 mm
04:45 PM 83.5°F28.6°C 49.7°F9.8°C 31% 4.5 mph SSE7.2 kmh SSE 122.0 mph196.3 kmh 30.05 in1017.6 mb 0.00 in0.0 mm 0.00 in0.0 mm 0.00 in0.0 mm
05:00 PM 82.8°F28.2°C 48.2°F9.0°C 30% 5.4 mph SSE8.7 kmh SSE 122.0 mph196.3 kmh 30.04 in1017.3 mb 0.00 in0.0 mm 0.00 in0.0 mm 0.00 in0.0 mm
05:15 PM 82.4°F28.0°C 47.0°F8.3°C 29% 4.5 mph SE7.2 kmh SE 125.0 mph201.2 kmh 30.04 in1017.3 mb 0.00 in0.0 mm 0.00 in0.0 mm 0.00 in0.0 mm
05:30 PM 82.4°F28.0°C 48.8°F9.3°C 31% 0.7 mph ENE1.1 kmh ENE 129.0 mph207.6 kmh 30.04 in1017.3 mb 0.00 in0.0 mm 0.00 in0.0 mm 0.00 in0.0 mm
05:45 PM 81.5°F27.5°C 48.0°F8.9°C 31% 6.0 mph SE9.7 kmh SE 129.0 mph207.6 kmh 30.04 in1017.3 mb 0.00 in0.0 mm 0.00 in0.0 mm 0.00 in0.0 mm
06:00 PM 80.8°F27.1°C 47.4°F8.6°C 31% 3.1 mph SE5.0 kmh SE 6.9 mph11.1 kmh 30.04 in1017.3 mb 0.00 in0.0 mm 0.00 in0.0 mm 0.00 in0.0 mm
06:15 PM 79.3°F26.3°C 49.3°F9.6°C 35% 2.2 mph ESE3.5 kmh ESE 132.0 mph212.4 kmh 30.04 in1017.3 mb 0.00 in0.0 mm 0.00 in0.0 mm 0.00 in0.0 mm
06:30 PM 79.0°F26.1°C 50.5°F10.3°C 37% 3.1 mph SE5.0 kmh SE 4.5 mph7.2 kmh 30.03 in1016.9 mb 0.00 in0.0 mm 0.00 in0.0 mm 0.00 in0.0 mm
06:45 PM 78.6°F25.9°C 51.6°F10.9°C 39% 1.6 mph ESE2.6 kmh ESE 3.8 mph6.1 kmh 30.04 in1017.3 mb 0.00 in0.0 mm 0.00 in0.0 mm 0.00 in0.0 mm
07:00 PM 77.2°F25.1°C 51.0°F10.6°C 40% 0.7 mph SE1.1 kmh SE 3.1 mph5.0 kmh 30.03 in1016.9 mb 0.00 in0.0 mm 0.00 in0.0 mm 0.00 in0.0 mm
07:15 PM 77.2°F25.1°C 51.0°F10.6°C 40% 1.6 mph SE2.6 kmh SE 3.1 mph5.0 kmh 30.04 in1017.3 mb 0.00 in0.0 mm 0.00 in0.0 mm 0.00 in0.0 mm
07:30 PM 76.8°F24.9°C 51.4°F10.8°C 41% 0.7 mph E1.1 kmh E 3.1 mph5.0 kmh 30.03 in1016.9 mb 0.00 in0.0 mm 0.00 in0.0 mm 0.00 in0.0 mm
07:45 PM 76.5°F24.7°C 51.0°F10.6°C 41% 0.7 mph ESE1.1 kmh ESE 2.2 mph3.5 kmh 30.04 in1017.3 mb 0.00 in0.0 mm 0.00 in0.0 mm 0.00 in0.0 mm
08:00 PM 76.3°F24.6°C 50.9°F10.5°C 41% Calm Calm 2.2 mph3.5 kmh 30.04 in1017.3 mb 0.00 in0.0 mm 0.00 in0.0 mm 0.00 in0.0 mm
08:15 PM 74.7°F23.7°C 50.7°F10.4°C 43% 1.6 mph NE2.6 kmh NE 3.1 mph5.0 kmh 30.04 in1017.3 mb 0.00 in0.0 mm 0.00 in0.0 mm 0.00 in0.0 mm
08:30 PM 73.9°F23.3°C 51.3°F10.7°C 45% 0.7 mph N1.1 kmh N 2.2 mph3.5 kmh 30.04 in1017.3 mb 0.00 in0.0 mm 0.00 in0.0 mm 0.00 in0.0 mm
08:45 PM 73.4°F23.0°C 50.2°F10.1°C 44% 1.6 mph NNE2.6 kmh NNE 3.1 mph5.0 kmh 30.04 in1017.3 mb 0.00 in0.0 mm 0.00 in0.0 mm 0.00 in0.0 mm
09:00 PM 73.2°F22.9°C 50.0°F10.0°C 44% 0.7 mph N1.1 kmh N 3.1 mph5.0 kmh 30.04 in1017.3 mb 0.00 in0.0 mm 0.00 in0.0 mm 0.00 in0.0 mm
09:15 PM 73.4°F23.0°C 48.9°F9.4°C 42% 1.6 mph NNW2.6 kmh NNW 2.2 mph3.5 kmh 30.05 in1017.6 mb 0.00 in0.0 mm 0.00 in0.0 mm 0.00 in0.0 mm
09:30 PM 72.9°F22.7°C 47.8°F8.8°C 41% 2.2 mph N3.5 kmh N 3.8 mph6.1 kmh 30.05 in1017.6 mb 0.00 in0.0 mm 0.00 in0.0 mm 0.00 in0.0 mm
09:45 PM 72.5°F22.5°C 46.8°F8.2°C 40% 3.1 mph NNW5.0 kmh NNW 4.5 mph7.2 kmh 30.04 in1017.3 mb 0.00 in0.0 mm 0.00 in0.0 mm 0.00 in0.0 mm
10:00 PM 72.3°F22.4°C 46.0°F7.8°C 39% 3.8 mph N6.1 kmh N 5.4 mph8.7 kmh 30.05 in1017.6 mb 0.00 in0.0 mm 0.00 in0.0 mm 0.00 in0.0 mm
10:15 PM 72.3°F22.4°C 45.3°F7.4°C 38% 3.1 mph N5.0 kmh N 7.6 mph12.2 kmh 30.04 in1017.3 mb 0.00 in0.0 mm 0.00 in0.0 mm 0.00 in0.0 mm
10:30 PM 72.3°F22.4°C 42.4°F5.8°C 34% 3.8 mph NW6.1 kmh NW 6.0 mph9.7 kmh 30.05 in1017.6 mb 0.00 in0.0 mm 0.00 in0.0 mm 0.00 in0.0 mm
10:45 PM 72.7°F22.6°C 42.7°F5.9°C 34% 3.1 mph N5.0 kmh N 5.4 mph8.7 kmh 30.04 in1017.3 mb 0.00 in0.0 mm 0.00 in0.0 mm 0.00 in0.0 mm
11:00 PM 72.7°F22.6°C 44.2°F6.8°C 36% 3.1 mph N5.0 kmh N 6.9 mph11.1 kmh 30.04 in1017.3 mb 0.00 in0.0 mm 0.00 in0.0 mm 0.00 in0.0 mm
11:15 PM 72.5°F22.5°C 44.8°F7.1°C 37% 4.5 mph NNW7.2 kmh NNW 5.4 mph8.7 kmh 30.04 in1017.3 mb 0.00 in0.0 mm 0.00 in0.0 mm 0.00 in0.0 mm
11:30 PM 72.7°F22.6°C 45.6°F7.6°C 38% 4.5 mph NW7.2 kmh NW 5.4 mph8.7 kmh 30.04 in1017.3 mb 0.00 in0.0 mm 0.00 in0.0 mm 0.00 in0.0 mm
11:45 PM 72.3°F22.4°C 45.3°F7.4°C 38% 3.8 mph NNW6.1 kmh NNW 5.4 mph8.7 kmh 30.04 in1017.3 mb 0.00 in0.0 mm 0.00 in0.0 mm 0.00 in0.0 mm